Hopkinton, MA

1:12 AM EST on December 18, 2014 (GMT -0500)
Hanscom | Change Station
CLOSE
Current Station
Airport
Location: Bedford,
Elevation: 135 ft
Nearby Weather Stations

Elev 135 ft 42.47 °N, 71.29 °W | Updated 16 minutes ago

Overcast
Overcast
38 °F
Feels Like 30 °F
N
12
Wind Variable Wind from West

Today
High -- | Low -- °F
--% Chance of Precip.
Yesterday
High -- | Low -- °F
Precip. -- in
7:09 AM 4:15 PM
Waning Crescent, 17% visible
Pressure 29.75 in
Visibility 10.0 miles
Clouds Mostly Cloudy 4300 ft
Overcast 9000 ft
Windchill 30 °F
Dew Point 31 °F
Humidity 76%
Rainfall 0.00 in
Snow Depth Not available.
UV 0 out of 12
Pollen .10 out of 12
Air Quality Not available.
Flu Activity Not available.
METAR KBED 180556Z AUTO 26010KT 10SM BKN043 OVC090 03/M01 A2971 RMK AO2 SLP074 T00331006 10067 20033 56008 TSNO

More Conditions Fewer Conditions

Pressure 29.75 in
Visibility 10.0 miles
Clouds Mostly Cloudy 4300 ft
Overcast 9000 ft
Windchill 30 °F
Dew Point 31 °F
Humidity 76%
Rainfall 0.00 in
Snow Depth Not available.
UV 0 out of 12
Pollen .10 out of 12
Air Quality Not available.
Flu Activity Not available.
METAR KBED 180556Z AUTO 26010KT 10SM BKN043 OVC090 03/M01 A2971 RMK AO2 SLP074 T00331006 10067 20033 56008 TSNO

More Conditions Fewer Conditions

10-Day Weather Forecast

Almanac

Astronomy

Dec. 18, 2014 Rise Set
Actual Time
Civil Twilight
Nautical Twilight
Astronomical Twilight
Moon
Length of Visible Light
Length of Day
Tomorrow will be .
, % of the Moon is Illuminated

Today's Extremes

State Highs State Lows

Community

WunderPhotos

Upload Photos

1,778,896 photos uploaded!

WunderBlogs® & News

Nearby

Air Quality

  Air Quality AQ Index Pollutant
Not available.

Snow Depth

Station Depth Elevation

Earthquake Activity

City Distance Mag. Time & Date
Minimum magnitude displayed is 2.5.

Coastal Water Temperatures

Place Temperature

Nearby Weather Stations